Terminal Aerodrome Forecast
Issued by NWS

Home | Current Version | Previous Version | Text Only | Print | Product List | Glossary Off
Versions: 1 2 3 4 5 6 7 8 9 10 11 12 13 14 15 16 17 18 19 20 21 22 23 24 25 26

000
FTUS43 KTOP 240200 AAB
TAFFOE
TAF AMD
KFOE 240209Z 2402/2424 16005KT 6SM BR SCT250
     FM240500 18005KT 4SM BR SCT010 SCT250
     FM241500 21014KT P6SM SCT250=

USA.gov is the U.S. government's official web portal to all federal, state and local government web resources and services.